createdAt,value
2019-01-08T00:03:52.369Z,24.43
2019-01-08T00:08:57.946Z,22.17
2019-01-08T00:14:03.341Z,22.90
2019-01-08T00:19:08.885Z,25.57
2019-01-08T00:24:14.330Z,20.73
2019-01-08T00:29:20.134Z,21.33
2019-01-08T00:34:25.544Z,21.73
2019-01-08T00:39:30.943Z,18.63
2019-01-08T00:44:36.152Z,22.33
2019-01-08T00:49:41.567Z,18.17
2019-01-08T00:54:46.998Z,13.80
2019-01-08T00:59:52.406Z,15.10
2019-01-08T01:04:57.876Z,11.50
2019-01-08T01:10:03.607Z,8.20
2019-01-08T01:15:09.732Z,9.80
2019-01-08T01:20:15.114Z,9.20
2019-01-08T01:25:20.546Z,7.77
2019-01-08T01:30:25.938Z,9.17
2019-01-08T01:35:31.342Z,10.20
2019-01-08T01:40:36.808Z,8.40
2019-01-08T01:45:42.546Z,7.80
2019-01-08T01:50:47.930Z,9.03
2019-01-08T01:55:53.719Z,11.37
2019-01-08T02:00:59.202Z,7.90
2019-01-08T02:06:04.612Z,11.17
2019-01-08T02:11:10.010Z,9.63
2019-01-08T02:16:15.444Z,8.60
2019-01-08T02:21:20.832Z,10.23
2019-01-08T02:26:26.238Z,9.93
2019-01-08T02:31:31.703Z,9.97
2019-01-08T02:36:37.439Z,9.53
2019-01-08T02:41:42.845Z,9.60
2019-01-08T02:46:48.415Z,8.97
2019-01-08T02:51:53.710Z,8.67
2019-01-08T02:56:59.201Z,12.47
2019-01-08T03:02:04.594Z,10.17
2019-01-08T03:07:09.982Z,9.47
2019-01-08T03:12:15.391Z,8.83
2019-01-08T03:17:20.803Z,10.07
2019-01-08T03:22:26.196Z,10.23
2019-01-08T03:27:31.950Z,9.63
2019-01-08T03:32:37.439Z,8.97
2019-01-08T03:37:43.196Z,9.37
2019-01-08T03:42:49.258Z,8.40
2019-01-08T03:47:54.645Z,13.13
2019-01-08T03:53:00.029Z,11.90
2019-01-08T03:58:05.752Z,8.83
2019-01-08T04:03:11.162Z,10.10
2019-01-08T04:08:16.599Z,10.63
2019-01-08T04:13:21.990Z,11.73
2019-01-08T04:18:27.387Z,11.03
2019-01-08T04:23:32.779Z,10.03
2019-01-08T04:28:38.165Z,9.20
2019-01-08T04:33:43.914Z,11.10
2019-01-08T04:38:49.304Z,9.03
2019-01-08T04:43:55.073Z,11.27
2019-01-08T04:49:00.476Z,17.27
2019-01-08T04:54:06.230Z,9.33
2019-01-08T04:59:12.006Z,10.97
2019-01-08T05:04:17.454Z,12.17
2019-01-08T05:09:22.841Z,14.47
2019-01-08T05:14:28.570Z,12.87
2019-01-08T05:19:33.949Z,9.33
2019-01-08T05:24:39.330Z,7.90
2019-01-08T05:29:44.733Z,11.30
2019-01-08T05:34:49.932Z,11.37
2019-01-08T05:39:55.318Z,8.37
2019-01-08T05:45:00.620Z,9.03
2019-01-08T05:50:06.087Z,7.07
2019-01-08T05:55:11.482Z,10.03
2019-01-08T06:00:17.266Z,16.33
2019-01-08T06:05:22.658Z,9.00
2019-01-08T06:10:28.039Z,8.97
2019-01-08T06:15:33.802Z,13.80
2019-01-08T06:20:39.583Z,15.17
2019-01-08T06:25:44.977Z,13.53
2019-01-08T06:30:50.382Z,8.57
2019-01-08T06:35:55.770Z,12.67
2019-01-08T06:41:01.174Z,14.33
2019-01-08T06:46:06.478Z,8.97
2019-01-08T06:51:11.870Z,5.13
2019-01-08T06:56:17.434Z,8.90
2019-01-08T07:01:22.851Z,12.80
2019-01-08T07:06:28.244Z,9.43
2019-01-08T07:11:33.980Z,16.60
2019-01-08T07:16:39.373Z,10.63
2019-01-08T07:21:44.826Z,11.03
2019-01-08T07:26:50.212Z,7.90
2019-01-08T07:31:55.598Z,7.23
2019-01-08T07:37:00.988Z,17.50
2019-01-08T07:42:06.746Z,14.87
2019-01-08T07:47:12.130Z,13.80
2019-01-08T07:52:17.534Z,12.93
2019-01-08T07:57:22.949Z,11.70
2019-01-08T08:02:28.802Z,11.67
2019-01-08T08:07:34.218Z,10.00
2019-01-08T08:12:39.641Z,8.10
2019-01-08T08:17:45.491Z,7.53
2019-01-08T08:22:51.038Z,5.70
2019-01-08T08:27:56.486Z,15.20
2019-01-08T08:33:02.129Z,15.87
2019-01-08T08:38:07.486Z,7.97
2019-01-08T08:43:12.976Z,10.63
2019-01-08T08:48:18.590Z,8.57
2019-01-08T08:53:24.137Z,12.03
2019-01-08T08:58:29.717Z,8.37
2019-01-08T09:03:35.096Z,3.50
2019-01-08T09:08:41.630Z,3.80
2019-01-08T09:13:47.147Z,10.50
2019-01-08T09:18:53.104Z,8.67
2019-01-08T09:23:59.031Z,8.23
2019-01-08T09:29:04.859Z,6.90
2019-01-08T09:34:10.712Z,5.03
2019-01-08T09:39:16.648Z,13.57
2019-01-08T09:44:22.090Z,13.63
2019-01-08T09:49:27.628Z,7.50
2019-01-08T09:54:32.929Z,20.57
2019-01-08T09:59:39.435Z,7.77
2019-01-08T10:04:45.829Z,14.53
2019-01-08T10:09:51.345Z,12.67
2019-01-08T10:14:57.552Z,9.97
2019-01-08T10:20:03.647Z,6.50
2019-01-08T10:25:10.045Z,6.87
2019-01-08T10:30:15.921Z,5.80
2019-01-08T10:35:21.343Z,7.27
2019-01-08T10:40:26.826Z,5.63
2019-01-08T10:45:34.456Z,6.03
2019-01-08T10:50:38.142Z,8.90
2019-01-08T10:55:43.534Z,8.60
2019-01-08T11:00:49.335Z,7.27
2019-01-08T11:05:56.021Z,9.17
2019-01-08T11:11:02.767Z,5.37
2019-01-08T11:16:08.568Z,8.50
2019-01-08T11:21:14.682Z,7.03
2019-01-08T11:26:20.786Z,9.30
2019-01-08T11:31:26.187Z,5.03
2019-01-08T11:36:32.285Z,10.23
2019-01-08T11:41:38.609Z,7.67
2019-01-08T11:46:44.034Z,5.47
2019-01-08T11:51:49.813Z,14.07
2019-01-08T11:56:55.847Z,7.47
2019-01-08T12:02:01.315Z,7.60
2019-01-08T12:07:06.795Z,9.03
2019-01-08T12:12:12.757Z,2.90
2019-01-08T12:17:18.167Z,5.23
2019-01-08T12:22:23.787Z,3.33
2019-01-08T12:27:29.356Z,2.10
2019-01-08T12:32:34.831Z,5.63
2019-01-08T12:37:42.110Z,9.40
2019-01-08T12:42:47.011Z,4.13
2019-01-08T12:47:52.336Z,2.33
2019-01-08T12:52:57.762Z,4.77
2019-01-08T12:58:04.114Z,6.70
2019-01-08T13:03:09.982Z,3.43
2019-01-08T13:08:15.396Z,3.50
2019-01-08T13:13:21.782Z,2.83
2019-01-08T13:18:27.054Z,8.40
2019-01-08T13:23:32.806Z,3.23
2019-01-08T13:28:38.262Z,6.80
2019-01-08T13:33:43.835Z,5.83
2019-01-08T13:38:49.643Z,3.97
2019-01-08T13:43:55.138Z,3.70
2019-01-08T13:49:01.293Z,7.83
2019-01-08T13:54:06.699Z,3.33
2019-01-08T13:59:12.312Z,5.60
2019-01-08T14:04:18.310Z,4.60
2019-01-08T14:09:23.699Z,4.77
2019-01-08T14:14:29.022Z,2.30
2019-01-08T14:19:34.489Z,3.90
2019-01-08T14:24:39.950Z,3.93
2019-01-08T14:29:45.951Z,6.67
2019-01-08T14:34:51.339Z,1.43
2019-01-08T14:39:57.246Z,1.03
2019-01-08T14:45:02.554Z,2.20
2019-01-08T14:50:08.299Z,1.37
2019-01-08T14:55:14.134Z,3.13
2019-01-08T15:00:19.655Z,0.97
2019-01-08T15:05:25.062Z,2.37
2019-01-08T15:10:30.518Z,2.77
2019-01-08T15:15:36.775Z,0.90
2019-01-08T15:20:42.855Z,2.53
2019-01-08T15:25:48.244Z,7.13
2019-01-08T15:30:54.197Z,1.33
2019-01-08T15:35:59.997Z,1.57
2019-01-08T15:41:06.110Z,1.90
2019-01-08T15:46:11.481Z,1.47
2019-01-08T15:51:16.766Z,2.40
2019-01-08T15:56:22.318Z,2.20
2019-01-08T16:01:27.759Z,4.97
2019-01-08T16:06:33.651Z,1.53
2019-01-08T16:11:39.126Z,2.40
2019-01-08T16:16:45.070Z,2.40
2019-01-08T16:21:50.456Z,4.60
2019-01-08T16:26:55.999Z,2.97
2019-01-08T16:32:01.490Z,4.77
2019-01-08T16:37:06.938Z,3.30
2019-01-08T16:42:12.742Z,2.83
2019-01-08T16:47:17.974Z,1.60
2019-01-08T16:52:23.870Z,3.27
2019-01-08T16:57:29.427Z,2.90
2019-01-08T17:02:35.554Z,7.70
2019-01-08T17:07:41.012Z,7.77
2019-01-08T17:12:46.775Z,5.33
2019-01-08T17:17:52.534Z,4.73
2019-01-08T17:22:57.954Z,4.33
2019-01-08T17:28:03.879Z,13.70
2019-01-08T17:33:09.657Z,7.67
2019-01-08T17:38:15.426Z,4.07
2019-01-08T17:43:20.905Z,7.27
2019-01-08T17:48:26.349Z,6.23
2019-01-08T17:53:32.097Z,7.17
2019-01-08T17:58:45.543Z,2.90
2019-01-08T18:03:51.750Z,2.33
2019-01-08T18:08:57.586Z,2.90
2019-01-08T18:14:03.440Z,2.63
2019-01-08T18:19:09.003Z,3.67
2019-01-08T18:24:14.891Z,3.37
2019-01-08T18:29:21.520Z,3.93
2019-01-08T18:34:27.791Z,4.67
2019-01-08T18:39:33.242Z,3.00
2019-01-08T18:44:39.382Z,6.60
2019-01-08T18:49:44.603Z,3.27
2019-01-08T18:54:50.297Z,2.00
2019-01-08T18:59:55.778Z,6.13
2019-01-08T19:05:01.267Z,2.13
2019-01-08T19:10:12.512Z,5.30
2019-01-08T19:15:17.818Z,1.50
2019-01-08T19:20:23.266Z,4.07
2019-01-08T19:25:29.027Z,4.23
2019-01-08T19:30:35.199Z,2.30
2019-01-08T19:35:40.751Z,4.70
2019-01-08T19:40:46.227Z,3.50
2019-01-08T19:45:52.402Z,2.17
2019-01-08T19:50:58.996Z,1.77
2019-01-08T19:56:04.930Z,2.07
2019-01-08T20:01:10.407Z,2.00
2019-01-08T20:06:15.875Z,5.87
2019-01-08T20:11:21.342Z,2.17
2019-01-08T20:16:26.990Z,6.67
2019-01-08T20:21:32.962Z,6.40
2019-01-08T20:26:38.366Z,2.50
2019-01-08T20:31:44.909Z,2.80
2019-01-08T20:36:50.400Z,3.40
2019-01-08T20:41:56.274Z,7.70
2019-01-08T20:47:02.174Z,2.97
2019-01-08T20:52:08.190Z,1.60
2019-01-08T20:57:13.460Z,2.70
2019-01-08T21:02:19.579Z,2.10
2019-01-08T21:07:25.408Z,2.40
2019-01-08T21:12:30.802Z,1.70
2019-01-08T21:17:36.226Z,3.80
2019-01-08T21:22:41.690Z,2.20
2019-01-08T21:27:47.238Z,1.53
2019-01-08T21:32:53.063Z,1.67
2019-01-08T21:37:58.878Z,2.50
2019-01-08T21:43:04.334Z,2.30
2019-01-08T21:48:10.150Z,1.60
2019-01-08T21:53:15.746Z,1.63
2019-01-08T21:58:21.227Z,2.07
2019-01-08T22:03:26.678Z,1.80
2019-01-08T22:08:32.252Z,2.93
2019-01-08T22:13:38.006Z,2.20
2019-01-08T22:18:43.475Z,2.13
2019-01-08T22:23:49.597Z,1.43
2019-01-08T22:28:54.974Z,1.30
2019-01-08T22:34:01.452Z,3.33
2019-01-08T22:39:07.150Z,1.53
2019-01-08T22:44:12.675Z,1.30
2019-01-08T22:49:18.574Z,1.60
2019-01-08T22:54:24.059Z,1.20
2019-01-08T22:59:29.546Z,2.90
2019-01-08T23:04:35.419Z,1.30
2019-01-08T23:09:41.914Z,1.30
2019-01-08T23:14:47.941Z,1.37
2019-01-08T23:19:53.758Z,2.23
2019-01-08T23:24:58.943Z,1.40
2019-01-08T23:30:04.530Z,1.50
2019-01-08T23:35:09.998Z,1.73
2019-01-08T23:40:15.385Z,1.90
2019-01-08T23:45:21.533Z,3.70
2019-01-08T23:50:27.658Z,2.00
2019-01-08T23:55:34.262Z,1.07
